Time;durP1;ratioP1;P1;durP2;ratioP2;P2;SDS_P1;SDS_P2;PMS_P1;PMS_P2;Temp;Humidity;BMP_temperature;BMP_pressure;BME280_temperature;BME280_humidity;BME280_pressure;Samples;Min_cycle;Max_cycle;Signal;HPM_P1;HPM_P2
2021/12/28 00:01:28;;;;;;;12.00;8.30;;;7.30;99.90;;;;;;5035530;28;20187;-84
2021/12/28 00:03:54;;;;;;;9.00;7.57;;;7.30;99.90;;;;;;5035505;28;20516;-83
2021/12/28 00:06:21;;;;;;;12.53;8.00;;;7.30;99.90;;;;;;5017548;28;20659;-83
2021/12/28 00:08:46;;;;;;;10.27;6.57;;;7.20;99.90;;;;;;5035495;28;20437;-83
2021/12/28 00:11:12;;;;;;;9.43;7.10;;;7.30;99.90;;;;;;5017215;28;20411;-82
2021/12/28 00:13:39;;;;;;;11.77;7.37;;;7.30;99.90;;;;;;5035281;28;20184;-83
2021/12/28 00:18:32;;;;;;;8.27;6.73;;;7.30;99.90;;;;;;5035085;28;20422;-83
2021/12/28 00:21:00;;;;;;;11.27;6.90;;;7.30;99.90;;;;;;5017321;28;20423;-83
2021/12/28 00:23:32;;;;;;;8.93;6.60;;;7.30;99.90;;;;;;5017185;28;20458;-83
2021/12/28 00:25:58;;;;;;;8.33;6.03;;;7.30;99.90;;;;;;5016999;28;20477;-83
2021/12/28 00:28:25;;;;;;;8.90;6.50;;;7.40;99.90;;;;;;5016853;28;20419;-84
2021/12/28 00:30:53;;;;;;;9.63;6.57;;;7.40;99.90;;;;;;5016973;28;20419;-84
2021/12/28 00:33:20;;;;;;;10.40;6.47;;;7.40;99.90;;;;;;5016761;28;20919;-82
2021/12/28 00:35:46;;;;;;;8.87;6.83;;;7.40;99.90;;;;;;5017002;28;20882;-82
2021/12/28 00:38:19;;;;;;;10.50;7.47;;;7.40;99.90;;;;;;5016457;28;20447;-84
2021/12/28 00:40:45;;;;;;;12.00;6.00;;;7.40;99.90;;;;;;5017045;28;20648;-83
2021/12/28 00:43:11;;;;;;;10.20;7.07;;;7.40;99.90;;;;;;5016835;28;20875;-83
2021/12/28 00:45:37;;;;;;;14.40;6.30;;;7.40;99.90;;;;;;5016793;28;20431;-84
2021/12/28 00:48:04;;;;;;;11.90;6.27;;;7.30;99.90;;;;;;5016593;28;20185;-84
2021/12/28 00:50:30;;;;;;;11.20;7.00;;;7.40;99.90;;;;;;5016683;28;20450;-84
2021/12/28 00:52:56;;;;;;;7.37;5.97;;;7.40;99.90;;;;;;5016729;28;20843;-83
2021/12/28 00:55:23;;;;;;;9.87;6.90;;;7.40;99.90;;;;;;5016468;28;20466;-85
2021/12/28 00:57:50;;;;;;;11.30;6.30;;;7.40;99.90;;;;;;5034040;28;20415;-82
2021/12/28 01:00:21;;;;;;;10.67;6.47;;;7.40;99.90;;;;;;5016426;28;20416;-84
2021/12/28 01:02:47;;;;;;;12.27;5.80;;;7.40;99.90;;;;;;5016187;28;20458;-83
2021/12/28 01:05:13;;;;;;;8.00;5.80;;;7.50;99.90;;;;;;5016334;28;20592;-84
2021/12/28 01:07:39;;;;;;;14.93;6.10;;;7.50;99.90;;;;;;5016258;28;20431;-83
2021/12/28 01:10:08;;;;;;;9.10;5.93;;;7.50;99.90;;;;;;5016422;28;20415;-83
2021/12/28 01:12:34;;;;;;;13.43;6.93;;;7.50;99.90;;;;;;5016256;28;20803;-83
2021/12/28 01:15:00;;;;;;;7.77;5.03;;;7.60;99.90;;;;;;5016094;28;20443;-84
2021/12/28 01:17:26;;;;;;;7.40;4.87;;;7.60;99.90;;;;;;5015976;28;20926;-83
2021/12/28 01:19:51;;;;;;;10.60;6.47;;;7.60;99.90;;;;;;5016122;28;20176;-83
2021/12/28 01:22:17;;;;;;;7.90;5.30;;;7.60;99.90;;;;;;5016104;28;20299;-82
2021/12/28 01:24:43;;;;;;;9.13;6.00;;;7.60;99.90;;;;;;5016263;28;20327;-84
2021/12/28 01:27:09;;;;;;;8.77;5.60;;;7.60;99.90;;;;;;5015695;28;20180;-82
2021/12/28 01:29:34;;;;;;;8.73;5.27;;;7.60;99.90;;;;;;5015909;28;20498;-84
2021/12/28 01:32:00;;;;;;;10.83;5.80;;;7.60;99.90;;;;;;5016010;28;20176;-83
2021/12/28 01:34:26;;;;;;;8.20;5.43;;;7.60;99.90;;;;;;5015917;28;20220;-83
2021/12/28 01:36:52;;;;;;;7.33;5.20;;;7.60;99.90;;;;;;5015391;28;20510;-83
2021/12/28 01:39:18;;;;;;;9.37;5.70;;;7.70;99.90;;;;;;5015573;28;20242;-83
2021/12/28 01:41:43;;;;;;;8.27;5.20;;;7.60;99.90;;;;;;5039333;23;20160;-81
2021/12/28 01:44:11;;;;;;;10.07;5.53;;;7.60;99.90;;;;;;5026521;28;20851;-85
2021/12/28 01:46:37;;;;;;;12.30;5.90;;;7.70;99.90;;;;;;5014318;28;20242;-84
2021/12/28 01:49:06;;;;;;;9.47;4.80;;;7.80;99.90;;;;;;5017741;28;20412;-86
2021/12/28 01:51:33;;;;;;;12.23;5.10;;;7.70;99.90;;;;;;4999348;28;20420;-86
2021/12/28 01:53:59;;;;;;;9.50;5.07;;;7.80;99.90;;;;;;4995802;28;20424;-85
2021/12/28 01:56:37;;;;;;;9.90;8.10;;;7.80;99.90;;;;;;5017796;28;20416;-86
2021/12/28 01:59:04;;;;;;;12.63;5.60;;;7.80;99.90;;;;;;4999500;28;20435;-86
2021/12/28 02:01:30;;;;;;;8.43;4.80;;;7.80;99.90;;;;;;5017430;28;21015;-85
2021/12/28 02:03:56;;;;;;;9.23;4.40;;;7.80;99.90;;;;;;4999545;28;20636;-85
2021/12/28 02:06:25;;;;;;;7.17;4.60;;;7.80;99.90;;;;;;5017760;28;20443;-86
2021/12/28 02:08:51;;;;;;;11.17;4.77;;;7.80;99.90;;;;;;4999723;28;20181;-84
2021/12/28 02:11:17;;;;;;;9.93;4.20;;;7.90;99.90;;;;;;4999065;28;20420;-84
2021/12/28 02:13:43;;;;;;;8.90;4.87;;;7.90;99.90;;;;;;5017708;28;20954;-83
2021/12/28 02:16:08;;;;;;;7.93;4.40;;;7.90;99.90;;;;;;5017025;28;20212;-82
2021/12/28 02:18:35;;;;;;;11.37;5.00;;;7.90;99.90;;;;;;4998978;28;20181;-86
2021/12/28 02:21:03;;;;;;;8.70;4.40;;;7.90;99.90;;;;;;4998351;28;20181;-86
2021/12/28 02:23:28;;;;;;;7.07;4.40;;;8.00;99.90;;;;;;4998432;28;20476;-86
2021/12/28 02:25:54;;;;;;;8.80;4.10;;;8.00;99.90;;;;;;4998153;28;20979;-85
2021/12/28 02:28:20;;;;;;;8.70;4.27;;;8.00;99.90;;;;;;4998713;28;20185;-83
2021/12/28 02:30:49;;;;;;;15.63;4.93;;;8.00;99.90;;;;;;4998299;28;20173;-83
2021/12/28 02:33:18;;;;;;;6.30;4.00;;;8.00;99.90;;;;;;5016772;28;20236;-85
2021/12/28 02:35:44;;;;;;;8.23;4.23;;;8.10;99.90;;;;;;4997291;28;20493;-83
2021/12/28 02:38:11;;;;;;;9.83;5.47;;;8.10;99.90;;;;;;4995312;28;20539;-84
2021/12/28 02:40:39;;;;;;;9.50;4.10;;;8.10;99.90;;;;;;4994873;28;20427;-84
2021/12/28 02:43:08;;;;;;;7.57;4.10;;;8.10;99.90;;;;;;4994855;28;20478;-83
2021/12/28 02:45:38;;;;;;;11.03;4.03;;;8.20;99.90;;;;;;4994828;28;20416;-83
2021/12/28 02:48:06;;;;;;;7.73;3.77;;;8.20;99.90;;;;;;4994617;28;20907;-84
2021/12/28 02:50:42;;;;;;;11.03;4.00;;;8.30;99.90;;;;;;5012551;28;20423;-82
2021/12/28 02:53:09;;;;;;;8.83;3.70;;;8.30;99.90;;;;;;4994752;28;20490;-83
2021/12/28 02:55:37;;;;;;;6.17;3.33;;;8.30;99.90;;;;;;5012413;28;20777;-84
2021/12/28 02:58:06;;;;;;;12.13;4.40;;;8.40;99.90;;;;;;5012202;28;20420;-84
2021/12/28 03:01:09;;;;;;;10.23;3.43;;;8.40;99.90;;;;;;5012293;28;20427;-83
2021/12/28 03:03:36;;;;;;;6.30;3.97;;;8.40;99.90;;;;;;4994405;28;20487;-82
2021/12/28 03:06:04;;;;;;;11.17;4.40;;;8.50;99.90;;;;;;5012305;28;20412;-84
2021/12/28 03:08:32;;;;;;;12.33;3.57;;;8.50;99.90;;;;;;5012230;28;20514;-82
2021/12/28 03:11:01;;;;;;;8.43;4.27;;;8.50;99.90;;;;;;5012319;28;20996;-82
2021/12/28 03:13:31;;;;;;;5.77;4.33;;;8.40;99.90;;;;;;4994406;28;20504;-83
2021/12/28 03:15:57;;;;;;;9.53;4.60;;;8.50;99.90;;;;;;5011971;28;20404;-83
2021/12/28 03:18:22;;;;;;;15.97;4.10;;;8.50;99.90;;;;;;4994221;28;20481;-83
2021/12/28 03:20:48;;;;;;;13.20;4.10;;;8.50;99.90;;;;;;4994243;28;20181;-84
2021/12/28 03:23:16;;;;;;;8.73;3.90;;;8.50;99.90;;;;;;4994426;28;20311;-83
2021/12/28 03:25:42;;;;;;;8.70;4.23;;;8.50;99.90;;;;;;4994211;28;20181;-84
2021/12/28 03:28:08;;;;;;;8.60;4.70;;;8.50;99.90;;;;;;4994290;28;20794;-83
2021/12/28 03:30:33;;;;;;;7.63;3.77;;;8.50;99.90;;;;;;4994237;28;20271;-84
2021/12/28 03:32:59;;;;;;;9.13;5.17;;;8.50;99.90;;;;;;4994280;28;20649;-84
2021/12/28 03:35:25;;;;;;;12.73;3.80;;;8.50;99.90;;;;;;4997524;28;20222;-83
2021/12/28 03:37:50;;;;;;;6.63;3.57;;;8.60;99.90;;;;;;5015577;28;20185;-83
2021/12/28 03:40:16;;;;;;;10.00;4.80;;;8.60;99.90;;;;;;4997897;28;20185;-85
2021/12/28 03:42:42;;;;;;;12.83;4.50;;;8.60;99.90;;;;;;5015361;28;20841;-83
2021/12/28 03:45:09;;;;;;;8.87;5.30;;;8.60;99.90;;;;;;4997795;28;20517;-83
2021/12/28 03:47:35;;;;;;;7.07;3.37;;;8.60;99.90;;;;;;4997724;28;20512;-83
2021/12/28 03:50:02;;;;;;;15.17;4.07;;;8.70;99.90;;;;;;5015371;28;20879;-84
2021/12/28 03:52:27;;;;;;;17.23;4.20;;;8.70;99.90;;;;;;5014931;28;20808;-83
2021/12/28 03:54:53;;;;;;;7.97;4.90;;;8.70;99.90;;;;;;4997725;28;20431;-83
2021/12/28 03:57:19;;;;;;;12.87;4.70;;;8.70;99.90;;;;;;4997198;28;20193;-83
2021/12/28 03:59:45;;;;;;;9.47;3.83;;;8.70;99.90;;;;;;4997469;28;20192;-83
2021/12/28 04:02:11;;;;;;;11.13;4.03;;;8.70;99.90;;;;;;4997283;28;21069;-84
2021/12/28 04:04:37;;;;;;;13.07;3.90;;;8.70;99.90;;;;;;4997435;28;20223;-84
2021/12/28 04:07:06;;;;;;;7.10;3.70;;;8.70;99.90;;;;;;4998650;28;20181;-84
2021/12/28 04:12:19;;;;;;;15.23;5.10;;;8.80;99.90;;;;;;5016646;28;20440;-84
2021/12/28 04:14:45;;;;;;;11.07;3.83;;;8.80;99.90;;;;;;4998358;28;20420;-85
2021/12/28 04:17:10;;;;;;;14.70;4.00;;;8.80;99.90;;;;;;4998115;28;20817;-84
2021/12/28 04:19:36;;;;;;;19.23;4.10;;;8.80;99.90;;;;;;4998072;28;20620;-83
2021/12/28 04:22:02;;;;;;;15.73;3.60;;;8.80;99.90;;;;;;4998219;28;20205;-83
2021/12/28 04:24:28;;;;;;;11.23;3.93;;;8.80;99.90;;;;;;4998044;28;20211;-84
2021/12/28 04:26:54;;;;;;;10.23;4.07;;;8.90;99.90;;;;;;4997497;28;20459;-84
2021/12/28 04:29:19;;;;;;;15.10;4.80;;;8.90;99.90;;;;;;4998060;28;20483;-84
2021/12/28 04:31:45;;;;;;;19.37;4.97;;;8.90;99.90;;;;;;4998434;28;20181;-85
2021/12/28 04:34:10;;;;;;;10.00;4.27;;;8.90;99.90;;;;;;5015797;28;20263;-85
2021/12/28 04:36:36;;;;;;;8.20;3.73;;;8.90;99.90;;;;;;4998213;28;20193;-84
2021/12/28 04:39:04;;;;;;;16.10;3.97;;;8.90;99.90;;;;;;5016435;28;20562;-85
2021/12/28 04:41:30;;;;;;;7.87;3.30;;;9.00;99.90;;;;;;4997770;28;20255;-85
2021/12/28 04:43:56;;;;;;;12.43;3.63;;;9.00;99.90;;;;;;4998204;28;20673;-85
2021/12/28 04:46:21;;;;;;;14.10;3.63;;;8.90;99.90;;;;;;4997739;28;20181;-85
2021/12/28 04:48:48;;;;;;;11.70;5.00;;;9.00;99.90;;;;;;5015908;28;20444;-85
2021/12/28 04:51:14;;;;;;;10.80;3.93;;;9.00;99.90;;;;;;4997329;28;20711;-84
2021/12/28 04:53:39;;;;;;;11.93;4.57;;;8.90;99.90;;;;;;4997309;28;20499;-83
2021/12/28 04:56:05;;;;;;;10.20;3.10;;;9.00;99.90;;;;;;5013399;28;20280;-82
2021/12/28 04:58:30;;;;;;;7.23;3.37;;;8.90;99.90;;;;;;5014986;28;20189;-84
2021/12/28 05:00:56;;;;;;;11.03;3.40;;;8.90;99.90;;;;;;5015336;28;20188;-84
2021/12/28 05:03:22;;;;;;;11.60;3.53;;;9.00;99.90;;;;;;4996915;28;20248;-83
2021/12/28 05:05:50;;;;;;;16.30;4.80;;;9.00;99.90;;;;;;4997124;28;20220;-83
2021/12/28 05:08:19;;;;;;;10.13;3.43;;;9.00;99.90;;;;;;5013211;28;20412;-84
2021/12/28 05:10:45;;;;;;;23.63;5.07;;;9.00;99.90;;;;;;5013193;28;20562;-84
2021/12/28 05:13:11;;;;;;;12.93;3.53;;;9.00;99.90;;;;;;5014540;28;20454;-85
2021/12/28 05:15:37;;;;;;;7.37;3.40;;;9.00;99.90;;;;;;5012994;28;20428;-83
2021/12/28 05:18:03;;;;;;;11.73;4.83;;;9.00;99.90;;;;;;5012938;28;20726;-85
2021/12/28 05:20:29;;;;;;;13.63;3.93;;;9.00;99.90;;;;;;5013259;28;20427;-85
2021/12/28 05:22:55;;;;;;;14.47;4.07;;;9.00;99.90;;;;;;4996402;28;20476;-85
2021/12/28 05:25:20;;;;;;;10.50;4.87;;;9.00;99.90;;;;;;4996565;28;20577;-86
2021/12/28 05:27:46;;;;;;;11.77;4.53;;;9.00;99.90;;;;;;5012950;28;20193;-83
2021/12/28 05:30:12;;;;;;;12.07;5.53;;;9.00;99.90;;;;;;4996541;28;20181;-84
2021/12/28 05:32:38;;;;;;;12.40;4.23;;;9.00;99.90;;;;;;5012826;28;20213;-83
2021/12/28 05:35:06;;;;;;;9.20;4.70;;;9.00;99.90;;;;;;5012544;28;20416;-83
2021/12/28 05:37:32;;;;;;;11.07;4.37;;;9.00;99.90;;;;;;5012506;28;20280;-83
2021/12/28 05:39:58;;;;;;;11.13;5.00;;;9.00;99.90;;;;;;5012744;28;20876;-83
2021/12/28 05:42:24;;;;;;;9.27;4.27;;;9.00;99.90;;;;;;5012437;28;20251;-84
2021/12/28 05:44:49;;;;;;;11.23;5.23;;;9.00;99.90;;;;;;5012549;28;20215;-85
2021/12/28 05:47:16;;;;;;;11.67;4.87;;;9.00;99.90;;;;;;5012467;28;20184;-83
2021/12/28 05:49:42;;;;;;;19.70;4.60;;;9.00;99.90;;;;;;5012484;28;20232;-84
2021/12/28 05:52:07;;;;;;;11.47;4.80;;;9.00;99.90;;;;;;5013643;28;20434;-83
2021/12/28 05:54:33;;;;;;;11.77;5.40;;;9.10;99.90;;;;;;4995910;28;20935;-83
2021/12/28 05:56:59;;;;;;;12.50;5.53;;;9.10;99.90;;;;;;5011161;28;20188;-85
2021/12/28 05:59:24;;;;;;;12.57;5.70;;;9.10;99.90;;;;;;5013647;28;20208;-83
2021/12/28 06:01:50;;;;;;;13.43;5.70;;;9.10;99.90;;;;;;5013370;28;20200;-85
2021/12/28 06:04:16;;;;;;;10.53;5.13;;;9.00;99.90;;;;;;5012211;28;20672;-84
2021/12/28 06:06:41;;;;;;;14.40;5.23;;;9.10;99.90;;;;;;4995365;28;20181;-83
2021/12/28 06:09:07;;;;;;;16.83;5.10;;;9.10;99.90;;;;;;5012107;28;20223;-83
2021/12/28 06:11:32;;;;;;;15.37;6.87;;;9.10;99.90;;;;;;5011658;28;20188;-85
2021/12/28 06:13:58;;;;;;;11.53;5.77;;;9.10;99.90;;;;;;5012172;28;20235;-84
2021/12/28 06:16:24;;;;;;;17.70;5.67;;;9.10;99.90;;;;;;4995594;28;20184;-83
2021/12/28 06:18:49;;;;;;;17.17;6.30;;;9.10;99.90;;;;;;5011804;28;20189;-83
2021/12/28 06:21:15;;;;;;;15.10;6.43;;;9.10;99.90;;;;;;4995613;28;20220;-85
2021/12/28 06:23:40;;;;;;;9.10;4.53;;;9.10;99.90;;;;;;5012966;28;20209;-84
2021/12/28 06:26:06;;;;;;;9.50;5.00;;;9.10;99.90;;;;;;5013279;28;20238;-85
2021/12/28 06:28:31;;;;;;;12.93;6.20;;;9.10;99.90;;;;;;5011620;28;20183;-83
2021/12/28 06:30:58;;;;;;;14.70;4.57;;;9.10;99.90;;;;;;5011877;28;20710;-83
2021/12/28 06:33:24;;;;;;;13.13;6.47;;;9.10;99.90;;;;;;5011733;28;20201;-83
2021/12/28 06:35:51;;;;;;;14.23;6.33;;;9.10;99.90;;;;;;5011867;28;20526;-84
2021/12/28 06:38:19;;;;;;;9.93;5.50;;;9.10;99.90;;;;;;5011695;28;20842;-83
2021/12/28 06:40:45;;;;;;;9.87;5.17;;;9.10;99.90;;;;;;5011499;28;20424;-83
2021/12/28 06:43:11;;;;;;;16.17;6.37;;;9.10;99.90;;;;;;5012834;28;20471;-84
2021/12/28 06:45:37;;;;;;;12.80;5.40;;;9.10;99.90;;;;;;5012608;28;20428;-86
2021/12/28 06:48:03;;;;;;;16.27;5.60;;;9.10;99.90;;;;;;5011504;28;20434;-83
2021/12/28 06:50:29;;;;;;;12.03;5.90;;;9.10;99.90;;;;;;5011728;28;20699;-85
2021/12/28 06:52:54;;;;;;;13.00;5.37;;;9.10;99.90;;;;;;5012848;28;20489;-83
2021/12/28 06:55:20;;;;;;;9.37;5.10;;;9.10;99.90;;;;;;5012625;28;20191;-83
2021/12/28 06:57:46;;;;;;;13.07;5.03;;;9.10;99.90;;;;;;5011474;28;20185;-84
2021/12/28 07:00:14;;;;;;;12.30;5.03;;;9.10;99.90;;;;;;5011492;28;20198;-83
2021/12/28 07:02:40;;;;;;;13.70;5.40;;;9.10;99.90;;;;;;5011294;28;20220;-83
2021/12/28 07:05:07;;;;;;;8.60;5.03;;;9.10;99.90;;;;;;5011313;28;20424;-83
2021/12/28 07:07:33;;;;;;;14.70;5.90;;;9.10;99.90;;;;;;5012973;28;20790;-85
2021/12/28 07:09:59;;;;;;;14.17;4.73;;;9.10;99.90;;;;;;5016729;28;20424;-85
2021/12/28 07:12:25;;;;;;;10.30;4.60;;;9.20;99.90;;;;;;5015284;28;21012;-83
2021/12/28 07:14:51;;;;;;;10.67;4.70;;;9.20;99.90;;;;;;5015125;28;20211;-84
2021/12/28 07:17:16;;;;;;;6.97;4.23;;;9.20;99.90;;;;;;4998689;28;20462;-82
2021/12/28 07:19:42;;;;;;;8.73;4.30;;;9.20;99.90;;;;;;5015595;28;20181;-84
2021/12/28 07:22:08;;;;;;;10.27;4.80;;;9.20;99.90;;;;;;5001417;28;20205;-86
2021/12/28 07:24:33;;;;;;;12.57;4.73;;;9.20;99.90;;;;;;5022255;28;20640;-87
2021/12/28 07:26:59;;;;;;;10.40;4.80;;;9.20;99.90;;;;;;5021188;28;20174;-84
2021/12/28 07:29:25;;;;;;;9.57;3.90;;;9.20;99.90;;;;;;5021460;28;20177;-86
2021/12/28 07:31:50;;;;;;;13.70;4.90;;;9.20;99.90;;;;;;5018406;28;20224;-85
2021/12/28 07:34:17;;;;;;;7.90;4.07;;;9.10;99.90;;;;;;5003358;28;20204;-85
2021/12/28 07:36:43;;;;;;;7.63;5.00;;;9.00;99.90;;;;;;5018655;28;20185;-86
2021/12/28 07:39:09;;;;;;;8.30;4.30;;;9.00;99.90;;;;;;5018713;28;20570;-86
2021/12/28 07:41:35;;;;;;;11.20;4.43;;;8.90;99.90;;;;;;5018897;28;20184;-86
2021/12/28 07:44:02;;;;;;;12.40;4.87;;;8.90;99.90;;;;;;5017632;28;20212;-86
2021/12/28 07:46:27;;;;;;;5.60;3.73;;;8.80;99.90;;;;;;5018663;28;20181;-85
2021/12/28 07:48:53;;;;;;;7.23;4.93;;;8.80;99.90;;;;;;5020331;28;20415;-86
2021/12/28 07:51:18;;;;;;;9.50;4.40;;;8.80;99.90;;;;;;5018254;28;20177;-85
2021/12/28 07:53:44;;;;;;;7.07;5.70;;;8.70;99.90;;;;;;5002223;28;20204;-85
2021/12/28 07:56:10;;;;;;;7.97;3.80;;;8.80;99.90;;;;;;5018008;28;20185;-84
2021/12/28 07:58:36;;;;;;;10.00;4.87;;;8.80;99.90;;;;;;5018245;28;20214;-86
2021/12/28 08:01:01;;;;;;;8.20;3.73;;;8.80;99.90;;;;;;5019836;28;20416;-86
2021/12/28 08:03:27;;;;;;;10.53;4.60;;;8.90;99.90;;;;;;5049085;23;20285;-77
2021/12/28 08:05:53;;;;;;;8.73;4.43;;;9.00;99.90;;;;;;4998487;28;20213;-78
2021/12/28 08:08:19;;;;;;;6.87;3.60;;;9.10;99.90;;;;;;4998461;28;20177;-78
2021/12/28 08:10:46;;;;;;;9.50;4.83;;;9.10;99.90;;;;;;4992143;28;20412;-78
2021/12/28 08:13:12;;;;;;;8.53;4.17;;;9.20;99.90;;;;;;4959669;28;20446;-77
2021/12/28 08:15:39;;;;;;;9.47;4.53;;;9.20;99.90;;;;;;4959725;28;20735;-78
2021/12/28 08:18:07;;;;;;;7.63;4.27;;;9.20;99.90;;;;;;4959245;28;20426;-78
2021/12/28 08:20:34;;;;;;;10.00;4.90;;;9.20;99.90;;;;;;4958784;28;20425;-77
2021/12/28 08:23:00;;;;;;;7.77;4.90;;;9.20;99.90;;;;;;4962788;28;20475;-77
2021/12/28 08:25:26;;;;;;;6.90;4.17;;;9.20;99.90;;;;;;4992093;28;20417;-77
2021/12/28 08:27:52;;;;;;;11.20;4.40;;;9.30;99.90;;;;;;4959613;28;20220;-77
2021/12/28 08:30:19;;;;;;;10.40;4.30;;;9.30;99.90;;;;;;4960286;28;20555;-77
2021/12/28 08:32:46;;;;;;;11.93;5.10;;;9.30;99.90;;;;;;4959246;28;20760;-78
2021/12/28 08:35:13;;;;;;;9.27;4.23;;;9.30;99.90;;;;;;4960167;28;20834;-79
2021/12/28 08:37:39;;;;;;;10.13;4.17;;;9.20;99.90;;;;;;4959545;28;20433;-80
2021/12/28 08:40:07;;;;;;;7.23;4.20;;;9.20;99.90;;;;;;4958922;28;20414;-78
2021/12/28 08:42:32;;;;;;;9.53;4.10;;;9.20;99.90;;;;;;4958168;28;20462;-77
2021/12/28 08:44:58;;;;;;;7.43;4.30;;;9.30;99.90;;;;;;4958356;28;20421;-77
2021/12/28 08:47:27;;;;;;;9.37;3.60;;;9.40;99.90;;;;;;4958501;28;20217;-77
2021/12/28 08:49:57;;;;;;;7.77;5.27;;;9.50;99.90;;;;;;4958099;28;20607;-77
2021/12/28 08:52:23;;;;;;;5.87;3.30;;;9.50;99.90;;;;;;4958240;28;20434;-77
2021/12/28 08:54:49;;;;;;;6.90;3.90;;;9.50;99.90;;;;;;4958011;28;20792;-77
2021/12/28 08:57:15;;;;;;;4.77;3.40;;;9.50;99.90;;;;;;4957976;28;20483;-78
2021/12/28 08:59:41;;;;;;;5.80;3.33;;;9.50;99.90;;;;;;4958144;28;20512;-77
2021/12/28 09:02:09;;;;;;;7.03;3.80;;;9.50;99.90;;;;;;4973567;28;20984;-77
2021/12/28 09:04:39;;;;;;;7.77;3.63;;;9.50;99.90;;;;;;4977105;28;20479;-77
2021/12/28 09:07:05;;;;;;;9.27;3.90;;;9.50;99.90;;;;;;4973762;28;20444;-77
2021/12/28 09:09:31;;;;;;;5.80;3.43;;;9.50;99.90;;;;;;4977086;28;20918;-77
2021/12/28 09:11:57;;;;;;;13.60;3.73;;;9.50;99.90;;;;;;4972846;28;20445;-78
2021/12/28 09:14:23;;;;;;;12.83;4.33;;;9.60;99.90;;;;;;4983443;28;20519;-78
2021/12/28 09:16:49;;;;;;;7.07;3.50;;;9.60;99.90;;;;;;4978672;28;20293;-78
2021/12/28 09:19:14;;;;;;;5.53;4.07;;;9.60;99.90;;;;;;4977884;28;20723;-78
2021/12/28 09:21:40;;;;;;;7.83;3.13;;;9.70;99.90;;;;;;4977118;28;20293;-78
2021/12/28 09:24:06;;;;;;;5.20;3.27;;;9.70;99.90;;;;;;4977633;28;20213;-79
2021/12/28 09:26:36;;;;;;;7.70;3.93;;;9.70;99.90;;;;;;4972904;28;20429;-78
2021/12/28 09:29:03;;;;;;;6.30;3.20;;;9.80;99.90;;;;;;4959107;28;20854;-78
2021/12/28 09:31:29;;;;;;;4.37;3.20;;;9.80;99.90;;;;;;4971707;28;20449;-78
2021/12/28 09:33:55;;;;;;;6.00;3.10;;;9.90;99.90;;;;;;4970900;28;20484;-78
2021/12/28 09:36:20;;;;;;;5.37;3.00;;;9.90;99.90;;;;;;4959417;28;20503;-78
2021/12/28 09:38:47;;;;;;;5.00;3.00;;;10.00;99.90;;;;;;4958578;28;21041;-79
2021/12/28 09:41:14;;;;;;;7.17;3.20;;;10.10;99.90;;;;;;4957718;28;20343;-78
2021/12/28 09:43:41;;;;;;;6.23;3.50;;;10.00;99.90;;;;;;4958646;28;21065;-79
2021/12/28 09:46:07;;;;;;;5.00;2.87;;;10.00;99.90;;;;;;4960159;28;20409;-79
2021/12/28 09:48:34;;;;;;;5.40;2.73;;;10.00;99.90;;;;;;4960382;28;20491;-79
2021/12/28 09:51:00;;;;;;;4.63;2.77;;;10.00;99.90;;;;;;4960534;28;20420;-79
2021/12/28 09:53:26;;;;;;;5.70;2.70;;;10.00;99.90;;;;;;4960693;28;20422;-79
2021/12/28 09:55:53;;;;;;;7.33;3.63;;;10.10;99.90;;;;;;4960388;28;20924;-79
2021/12/28 09:58:19;;;;;;;4.70;2.70;;;10.10;99.90;;;;;;4960722;28;20430;-79
2021/12/28 10:00:44;;;;;;;4.43;3.30;;;10.10;99.90;;;;;;4960213;28;20432;-79
2021/12/28 10:03:10;;;;;;;4.60;2.80;;;10.10;99.90;;;;;;4960184;28;20226;-79
2021/12/28 10:05:36;;;;;;;6.10;2.23;;;10.10;99.90;;;;;;4960102;28;20174;-79
2021/12/28 10:08:05;;;;;;;4.60;2.70;;;10.10;99.90;;;;;;4960037;28;20793;-79
2021/12/28 10:10:40;;;;;;;3.90;2.10;;;10.10;99.90;;;;;;4960276;28;20428;-79
2021/12/28 10:13:19;;;;;;;3.60;2.27;;;10.10;99.90;;;;;;4960246;28;20453;-78
2021/12/28 10:15:47;;;;;;;4.17;2.13;;;10.20;99.90;;;;;;4960057;28;20460;-79
2021/12/28 10:18:13;;;;;;;3.93;2.17;;;10.20;99.90;;;;;;4959716;28;20418;-79
2021/12/28 10:21:00;;;;;;;4.47;2.60;;;10.10;99.90;;;;;;4960127;28;20516;-79
2021/12/28 10:23:29;;;;;;;4.00;2.37;;;10.10;99.90;;;;;;4960081;28;20464;-78
2021/12/28 10:25:56;;;;;;;4.87;2.50;;;10.00;99.90;;;;;;4959702;28;20469;-78
2021/12/28 10:28:31;;;;;;;4.33;2.60;;;10.00;99.90;;;;;;4959916;28;20418;-78
2021/12/28 10:31:03;;;;;;;4.17;2.33;;;10.10;99.90;;;;;;4959463;28;20422;-79
2021/12/28 10:33:33;;;;;;;3.20;1.97;;;10.10;99.90;;;;;;4960109;28;20426;-79
2021/12/28 10:36:05;;;;;;;5.33;3.00;;;10.10;99.90;;;;;;4959680;28;20421;-78
2021/12/28 10:38:34;;;;;;;5.37;2.23;;;10.20;99.90;;;;;;4959931;28;20434;-79
2021/12/28 10:41:12;;;;;;;4.63;2.77;;;10.20;99.90;;;;;;4959710;28;20428;-79
2021/12/28 10:43:43;;;;;;;4.10;2.57;;;10.30;99.90;;;;;;4959456;28;20465;-79
2021/12/28 10:46:15;;;;;;;4.30;2.73;;;10.30;99.90;;;;;;4959529;28;20425;-78
2021/12/28 10:48:46;;;;;;;4.50;2.40;;;10.30;99.90;;;;;;4959713;28;20516;-79
2021/12/28 10:51:27;;;;;;;7.10;3.87;;;10.40;99.90;;;;;;4959049;28;21022;-79
2021/12/28 10:56:36;;;;;;;5.50;2.60;;;10.40;99.90;;;;;;4976888;28;20421;-78
2021/12/28 10:59:03;;;;;;;3.70;2.70;;;10.40;99.90;;;;;;4959967;28;20422;-79
2021/12/28 11:01:33;;;;;;;3.13;1.80;;;10.50;99.90;;;;;;4959421;28;20921;-78
2021/12/28 11:04:09;;;;;;;4.63;2.50;;;10.50;99.90;;;;;;4959630;28;20492;-79
2021/12/28 11:06:37;;;;;;;5.03;2.60;;;10.70;99.90;;;;;;4959390;28;20417;-78
2021/12/28 11:09:07;;;;;;;3.27;1.87;;;10.90;99.90;;;;;;4959085;28;20425;-79
2021/12/28 11:11:33;;;;;;;7.67;2.17;;;10.90;99.90;;;;;;4959294;28;21032;-79
2021/12/28 11:14:03;;;;;;;3.83;2.13;;;10.90;99.90;;;;;;4959927;28;20425;-79
2021/12/28 11:16:31;;;;;;;3.60;2.40;;;11.00;99.90;;;;;;4959592;28;20472;-79
2021/12/28 11:18:59;;;;;;;3.17;2.17;;;11.10;99.90;;;;;;4960042;28;20457;-79
2021/12/28 11:21:41;;;;;;;3.43;1.87;;;11.20;99.90;;;;;;4959042;28;20965;-79
2021/12/28 11:24:13;;;;;;;3.87;2.10;;;11.20;99.90;;;;;;4959002;28;20453;-79
2021/12/28 11:26:50;;;;;;;3.50;1.73;;;11.20;99.90;;;;;;4958966;28;20422;-79
2021/12/28 11:29:22;;;;;;;3.00;1.40;;;11.30;99.90;;;;;;4958812;28;20424;-79
2021/12/28 11:31:52;;;;;;;3.23;1.63;;;11.30;99.90;;;;;;4958512;28;20430;-79
2021/12/28 11:34:30;;;;;;;5.00;2.13;;;11.20;99.90;;;;;;4958587;28;20425;-79
2021/12/28 11:36:58;;;;;;;2.90;1.50;;;11.20;99.90;;;;;;4959089;28;20508;-79
2021/12/28 11:39:34;;;;;;;4.10;1.97;;;11.10;99.90;;;;;;4958743;28;20422;-79
2021/12/28 11:42:03;;;;;;;6.13;1.80;;;11.00;99.90;;;;;;4957742;28;20532;-78
2021/12/28 11:44:30;;;;;;;3.20;2.10;;;11.00;99.90;;;;;;4957374;28;20461;-78
2021/12/28 11:46:57;;;;;;;5.17;2.37;;;11.00;99.90;;;;;;4956646;28;20425;-78
2021/12/28 11:49:27;;;;;;;6.00;3.43;;;10.90;99.90;;;;;;4957478;28;20445;-78
2021/12/28 11:51:54;;;;;;;5.47;2.77;;;10.90;99.90;;;;;;4957224;28;20445;-78
2021/12/28 11:54:22;;;;;;;3.23;1.63;;;10.90;99.90;;;;;;4957573;28;20943;-78
2021/12/28 11:57:00;;;;;;;5.90;2.67;;;10.80;99.90;;;;;;4959828;28;20481;-78
2021/12/28 11:59:28;;;;;;;3.40;2.00;;;10.80;99.90;;;;;;4959850;28;20433;-78
2021/12/28 12:02:13;;;;;;;3.23;1.33;;;10.80;99.90;;;;;;4959361;28;20453;-78
2021/12/28 12:04:43;;;;;;;3.57;1.67;;;10.80;99.90;;;;;;4959666;28;20518;-78
2021/12/28 12:07:14;;;;;;;4.97;1.50;;;10.80;99.90;;;;;;4959538;28;20498;-78
2021/12/28 12:09:49;;;;;;;4.57;1.83;;;10.80;99.90;;;;;;4959151;28;20996;-78
2021/12/28 12:12:29;;;;;;;3.33;1.10;;;10.80;99.90;;;;;;4959572;28;20787;-78
2021/12/28 12:14:58;;;;;;;2.97;1.27;;;10.80;99.90;;;;;;4959619;28;20580;-78
2021/12/28 12:17:41;;;;;;;2.80;1.20;;;10.80;99.90;;;;;;4959390;28;20432;-78
2021/12/28 12:20:22;;;;;;;7.60;1.23;;;10.80;99.90;;;;;;4959664;28;20804;-78
2021/12/28 12:22:49;;;;;;;3.07;1.20;;;10.80;99.90;;;;;;4959609;28;20472;-78
2021/12/28 12:25:20;;;;;;;3.83;1.20;;;10.80;99.90;;;;;;4959447;28;20435;-78
2021/12/28 12:27:47;;;;;;;3.93;1.63;;;10.80;99.90;;;;;;4959124;28;20410;-78
2021/12/28 12:30:25;;;;;;;2.80;1.20;;;10.80;99.90;;;;;;4958788;28;20508;-78
2021/12/28 12:33:11;;;;;;;3.30;1.40;;;10.80;99.90;;;;;;4958863;28;20457;-78
2021/12/28 12:35:43;;;;;;;8.13;2.37;;;10.80;99.90;;;;;;4960090;28;20426;-78
2021/12/28 12:38:12;;;;;;;14.17;2.20;;;10.60;99.90;;;;;;4958665;28;20513;-77
2021/12/28 12:41:05;;;;;;;7.33;1.80;;;10.50;99.90;;;;;;4959022;28;20515;-77
2021/12/28 12:43:39;;;;;;;6.70;2.63;;;10.40;99.90;;;;;;4958926;28;20474;-78
2021/12/28 12:46:24;;;;;;;6.63;2.40;;;10.20;99.90;;;;;;4959148;28;20424;-78
2021/12/28 12:48:53;;;;;;;9.30;2.70;;;10.10;99.90;;;;;;4959108;28;20422;-78
2021/12/28 12:51:22;;;;;;;8.03;2.43;;;10.10;99.90;;;;;;4958951;28;20445;-78
2021/12/28 12:53:47;;;;;;;9.70;2.77;;;10.00;99.90;;;;;;4958998;28;20457;-77
2021/12/28 12:56:16;;;;;;;12.30;4.13;;;10.00;99.90;;;;;;4958783;28;20457;-78
2021/12/28 12:58:46;;;;;;;10.50;3.10;;;10.00;99.90;;;;;;4958839;28;20225;-78
2021/12/28 13:01:27;;;;;;;8.73;3.27;;;10.00;99.90;;;;;;4959047;28;20452;-78